createdAt,value
2023-02-14T00:09:47.146Z,1023.4
2023-02-14T00:19:53.311Z,1023.4
2023-02-14T00:29:59.301Z,1023.3
2023-02-14T00:40:05.299Z,1023.2
2023-02-14T00:50:11.325Z,1023.1
2023-02-14T01:00:17.386Z,1023.1
2023-02-14T01:10:23.420Z,1023.2
2023-02-14T01:20:29.539Z,1023.1
2023-02-14T01:30:35.498Z,1023.1
2023-02-14T01:40:42.008Z,1023.1
2023-02-14T01:50:47.600Z,1023.1
2023-02-14T02:00:53.692Z,1023
2023-02-14T02:11:00.081Z,1023
2023-02-14T02:21:05.764Z,1023
2023-02-14T02:31:11.909Z,1022.9
2023-02-14T02:41:17.839Z,1022.8
2023-02-14T02:51:23.854Z,1022.8
2023-02-14T03:01:29.985Z,1022.8
2023-02-14T03:11:35.927Z,1022.8
2023-02-14T03:21:42.000Z,1022.8
2023-02-14T03:31:48.218Z,1022.8
2023-02-14T03:41:54.105Z,1022.9
2023-02-14T03:52:00.127Z,1022.8
2023-02-14T04:02:06.361Z,1022.8
2023-02-14T04:12:12.219Z,1022.8
2023-02-14T04:22:18.260Z,1022.8
2023-02-14T04:32:26.274Z,1022.8
2023-02-14T04:42:32.226Z,1022.7
2023-02-14T04:52:38.225Z,1022.7
2023-02-14T05:02:44.291Z,1022.6
2023-02-14T05:12:50.303Z,1022.5
2023-02-14T05:22:56.386Z,1022.5
2023-02-14T05:33:02.403Z,1022.4
2023-02-14T05:43:08.481Z,1022.3
2023-02-14T05:53:14.494Z,1022.2
2023-02-14T06:03:20.552Z,1022.3
2023-02-14T06:13:26.584Z,1022.3
2023-02-14T06:23:32.662Z,1022.4
2023-02-14T06:33:38.687Z,1022.5
2023-02-14T06:43:44.743Z,1022.5
2023-02-14T06:53:50.768Z,1022.5
2023-02-14T07:03:56.835Z,1022.6
2023-02-14T07:14:02.857Z,1022.6
2023-02-14T07:24:08.911Z,1022.6
2023-02-14T07:34:14.958Z,1022.6
2023-02-14T07:44:20.998Z,1022.6
2023-02-14T07:54:27.009Z,1022.5
2023-02-14T08:04:34.038Z,1022.6
2023-02-14T08:14:39.140Z,1022.6
2023-02-14T08:24:45.151Z,1022.5
2023-02-14T08:34:51.173Z,1022.5
2023-02-14T08:44:57.367Z,1022.6
2023-02-14T08:55:03.299Z,1022.6
2023-02-14T09:05:09.335Z,1022.6
2023-02-14T09:15:15.413Z,1022.5
2023-02-14T09:25:21.444Z,1022.4
2023-02-14T09:35:27.438Z,1022.3
2023-02-14T09:45:33.586Z,1022.3
2023-02-14T09:55:39.538Z,1022.3
2023-02-14T10:05:45.623Z,1022.2
2023-02-14T10:15:51.618Z,1022.2
2023-02-14T10:25:57.706Z,1022.2
2023-02-14T10:36:03.758Z,1022.2
2023-02-14T10:46:09.860Z,1022.1
2023-02-14T10:56:15.828Z,1022
2023-02-14T11:06:21.838Z,1021.8
2023-02-14T11:16:27.926Z,1021.7
2023-02-14T11:26:33.935Z,1021.6
2023-02-14T11:36:39.987Z,1021.6
2023-02-14T11:46:53.555Z,1021.5
2023-02-14T11:56:53.994Z,1021.3
2023-02-14T12:06:59.992Z,1021.1
2023-02-14T12:17:06.059Z,1021
2023-02-14T12:27:12.073Z,1020.8
2023-02-14T12:37:18.148Z,1020.7
2023-02-14T12:47:26.021Z,1020.6
2023-02-14T12:57:32.111Z,1020.5
2023-02-14T13:07:38.149Z,1020.3
2023-02-14T13:17:44.186Z,1020.1
2023-02-14T13:27:50.190Z,1020
2023-02-14T13:37:56.251Z,1020
2023-02-14T13:48:02.257Z,1020
2023-02-14T13:58:08.337Z,1019.8
2023-02-14T14:08:14.330Z,1019.8
2023-02-14T14:18:20.402Z,1019.7
2023-02-14T14:28:26.431Z,1019.6
2023-02-14T14:38:32.516Z,1019.5
2023-02-14T14:48:38.559Z,1019.4
2023-02-14T14:58:44.601Z,1019.3
2023-02-14T15:08:50.609Z,1019.2
2023-02-14T15:18:56.680Z,1019.1
2023-02-14T15:29:02.708Z,1019
2023-02-14T15:39:08.764Z,1019
2023-02-14T15:49:14.789Z,1019
2023-02-14T15:59:20.838Z,1018.9
2023-02-14T16:09:26.863Z,1019
2023-02-14T16:19:32.939Z,1019
2023-02-14T16:29:38.934Z,1019
2023-02-14T16:39:45.044Z,1019.1
2023-02-14T16:49:51.024Z,1019.2
2023-02-14T16:59:57.191Z,1019.1
2023-02-14T17:10:03.098Z,1019.2
2023-02-14T17:20:09.170Z,1019.3
2023-02-14T17:30:15.327Z,1019.3
2023-02-14T17:40:21.263Z,1019.4
2023-02-14T17:50:27.286Z,1019.5
2023-02-14T18:00:33.364Z,1019.6
2023-02-14T18:10:39.390Z,1019.5
2023-02-14T18:20:45.446Z,1019.5
2023-02-14T18:30:51.491Z,1019.4
2023-02-14T18:40:57.537Z,1019.3
2023-02-14T18:51:03.562Z,1019.2
2023-02-14T19:01:09.661Z,1019.2
2023-02-14T19:11:15.625Z,1019.1
2023-02-14T19:21:21.693Z,1019
2023-02-14T19:31:27.852Z,1018.8
2023-02-14T19:41:33.808Z,1018.8
2023-02-14T19:51:39.811Z,1018.7
2023-02-14T20:01:45.983Z,1018.7
2023-02-14T20:11:51.912Z,1018.6
2023-02-14T20:21:57.986Z,1018.6
2023-02-14T20:32:04.059Z,1018.6
2023-02-14T20:42:10.097Z,1018.5
2023-02-14T20:52:16.075Z,1018.5
2023-02-14T21:02:22.137Z,1018.4
2023-02-14T21:12:28.192Z,1018.5
2023-02-14T21:22:34.211Z,1018.4
2023-02-14T21:32:40.234Z,1018.5
2023-02-14T21:42:46.296Z,1018.4
2023-02-14T21:52:52.346Z,1018.3
2023-02-14T22:02:58.445Z,1018.3
2023-02-14T22:13:04.435Z,1018.2
2023-02-14T22:23:10.484Z,1018.2
2023-02-14T22:33:16.495Z,1018.1
2023-02-14T22:43:22.588Z,1018
2023-02-14T22:53:28.579Z,1018
2023-02-14T23:03:34.680Z,1017.9
2023-02-14T23:13:40.663Z,1017.9
2023-02-14T23:23:46.739Z,1017.9
2023-02-14T23:33:52.800Z,1017.9
2023-02-14T23:43:58.830Z,1018
2023-02-14T23:54:04.839Z,1017.8
